sensor_id;sensor_type;location;lat;lon;timestamp;pressure;altitude;pressure_sealevel;temperature;humidity
59391;BME280;53405;57.012;40.984;2023-03-23T00:01:57;99691.72;;;1.61;76.84
59391;BME280;53405;57.012;40.984;2023-03-23T00:04:23;99712.44;;;1.83;76.95
59391;BME280;53405;57.012;40.984;2023-03-23T00:06:51;99713.84;;;1.87;77.04
59391;BME280;53405;57.012;40.984;2023-03-23T00:09:17;99714.97;;;1.94;76.68
59391;BME280;53405;57.012;40.984;2023-03-23T00:11:50;99712.78;;;1.89;76.84
59391;BME280;53405;57.012;40.984;2023-03-23T00:14:17;99704.91;;;1.79;77.17
59391;BME280;53405;57.012;40.984;2023-03-23T00:16:48;99719.56;;;1.80;77.31
59391;BME280;53405;57.012;40.984;2023-03-23T00:19:15;99701.63;;;1.77;77.55
59391;BME280;53405;57.012;40.984;2023-03-23T00:21:43;99715.19;;;1.81;77.30
59391;BME280;53405;57.012;40.984;2023-03-23T00:24:14;99727.94;;;1.94;77.49
59391;BME280;53405;57.012;40.984;2023-03-23T00:26:46;99716.75;;;1.93;77.51
59391;BME280;53405;57.012;40.984;2023-03-23T00:29:18;99714.41;;;1.90;77.07
59391;BME280;53405;57.012;40.984;2023-03-23T00:31:49;99725.19;;;1.86;77.25
59391;BME280;53405;57.012;40.984;2023-03-23T00:34:19;99712.84;;;1.78;77.25
59391;BME280;53405;57.012;40.984;2023-03-23T00:36:47;99733.34;;;1.81;78.15
59391;BME280;53405;57.012;40.984;2023-03-23T00:39:13;99720.75;;;1.76;77.50
59391;BME280;53405;57.012;40.984;2023-03-23T00:41:43;99722.78;;;1.73;78.41
59391;BME280;53405;57.012;40.984;2023-03-23T00:44:10;99713.34;;;1.72;77.66
59391;BME280;53405;57.012;40.984;2023-03-23T00:46:43;99712.97;;;1.76;78.21
59391;BME280;53405;57.012;40.984;2023-03-23T00:49:17;99711.34;;;1.75;77.85
59391;BME280;53405;57.012;40.984;2023-03-23T00:51:44;99722.03;;;1.82;78.56
59391;BME280;53405;57.012;40.984;2023-03-23T00:54:13;99718.88;;;1.78;78.16
59391;BME280;53405;57.012;40.984;2023-03-23T00:56:39;99724.75;;;1.80;77.55
59391;BME280;53405;57.012;40.984;2023-03-23T00:59:05;99709.47;;;1.87;77.33
59391;BME280;53405;57.012;40.984;2023-03-23T01:01:32;99704.53;;;1.84;77.00
59391;BME280;53405;57.012;40.984;2023-03-23T01:04:00;99716.75;;;1.93;77.51
59391;BME280;53405;57.012;40.984;2023-03-23T01:06:35;99715.56;;;1.97;76.74
59391;BME280;53405;57.012;40.984;2023-03-23T01:09:05;99716.50;;;1.96;76.72
59391;BME280;53405;57.012;40.984;2023-03-23T01:11:32;99715.50;;;2.19;77.23
59391;BME280;53405;57.012;40.984;2023-03-23T01:13:58;99703.16;;;2.11;76.77
59391;BME280;53405;57.012;40.984;2023-03-23T01:16:24;99700.94;;;2.37;75.85
59391;BME280;53405;57.012;40.984;2023-03-23T01:18:51;99705.78;;;2.21;76.09
59391;BME280;53405;57.012;40.984;2023-03-23T01:21:18;99691.94;;;2.10;75.76
59391;BME280;53405;57.012;40.984;2023-03-23T01:23:45;99701.16;;;2.14;76.00
59391;BME280;53405;57.012;40.984;2023-03-23T01:26:17;99696.28;;;2.00;76.57
59391;BME280;53405;57.012;40.984;2023-03-23T01:28:44;99706.41;;;2.03;77.07
59391;BME280;53405;57.012;40.984;2023-03-23T01:31:12;99697.94;;;2.01;76.89
59391;BME280;53405;57.012;40.984;2023-03-23T01:33:39;99691.47;;;1.95;77.06
59391;BME280;53405;57.012;40.984;2023-03-23T01:36:21;99689.84;;;1.94;77.33
59391;BME280;53405;57.012;40.984;2023-03-23T01:38:49;99691.59;;;1.94;77.71
59391;BME280;53405;57.012;40.984;2023-03-23T01:41:16;99686.00;;;1.98;77.36
59391;BME280;53405;57.012;40.984;2023-03-23T01:43:54;99683.53;;;1.97;77.35
59391;BME280;53405;57.012;40.984;2023-03-23T01:46:22;99663.09;;;2.04;77.43
59391;BME280;53405;57.012;40.984;2023-03-23T01:48:48;99674.31;;;2.14;77.08
59391;BME280;53405;57.012;40.984;2023-03-23T01:51:17;99668.19;;;2.15;77.28
59391;BME280;53405;57.012;40.984;2023-03-23T01:53:49;99678.63;;;2.34;76.29
59391;BME280;53405;57.012;40.984;2023-03-23T01:56:19;99670.50;;;2.08;76.68
59391;BME280;53405;57.012;40.984;2023-03-23T01:58:46;99676.63;;;2.07;76.84
59391;BME280;53405;57.012;40.984;2023-03-23T02:01:14;99688.81;;;2.07;76.93
59391;BME280;53405;57.012;40.984;2023-03-23T02:03:43;99680.28;;;2.05;77.06
59391;BME280;53405;57.012;40.984;2023-03-23T02:06:10;99680.03;;;2.08;77.23
59391;BME280;53405;57.012;40.984;2023-03-23T02:08:56;99674.84;;;2.08;77.18
59391;BME280;53405;57.012;40.984;2023-03-23T02:11:24;99640.34;;;1.96;76.94
59391;BME280;53405;57.012;40.984;2023-03-23T02:13:50;99665.56;;;2.05;77.20
59391;BME280;53405;57.012;40.984;2023-03-23T02:30:31;99656.81;;;2.16;75.94
59391;BME280;53405;57.012;40.984;2023-03-23T02:33:49;99662.00;;;2.16;76.56
59391;BME280;53405;57.012;40.984;2023-03-23T02:36:32;99661.88;;;2.17;75.96
59391;BME280;53405;57.012;40.984;2023-03-23T02:39:09;99661.63;;;2.21;75.88
59391;BME280;53405;57.012;40.984;2023-03-23T02:41:47;99615.13;;;2.17;75.45
59391;BME280;53405;57.012;40.984;2023-03-23T02:44:16;99665.13;;;2.50;74.52
59391;BME280;53405;57.012;40.984;2023-03-23T02:46:43;99660.91;;;2.49;74.56
59391;BME280;53405;57.012;40.984;2023-03-23T02:49:13;99651.97;;;2.42;74.55
59391;BME280;53405;57.012;40.984;2023-03-23T02:51:44;99640.88;;;2.30;74.58
59391;BME280;53405;57.012;40.984;2023-03-23T02:54:11;99661.00;;;2.38;74.34
59391;BME280;53405;57.012;40.984;2023-03-23T02:56:39;99670.00;;;2.34;74.67
59391;BME280;53405;57.012;40.984;2023-03-23T02:59:12;99663.78;;;2.66;73.62
59391;BME280;53405;57.012;40.984;2023-03-23T03:04:09;99657.84;;;2.44;73.78
59391;BME280;53405;57.012;40.984;2023-03-23T03:12:02;99651.28;;;2.40;73.67
59391;BME280;53405;57.012;40.984;2023-03-23T03:14:58;99648.56;;;2.42;73.51
59391;BME280;53405;57.012;40.984;2023-03-23T03:17:29;99629.13;;;2.36;73.18
59391;BME280;53405;57.012;40.984;2023-03-23T03:20:02;99649.00;;;2.57;73.47
59391;BME280;53405;57.012;40.984;2023-03-23T03:22:48;99655.44;;;2.62;73.54
59391;BME280;53405;57.012;40.984;2023-03-23T03:25:14;99645.59;;;2.76;72.64
59391;BME280;53405;57.012;40.984;2023-03-23T03:27:46;99648.63;;;2.81;72.37
59391;BME280;53405;57.012;40.984;2023-03-23T03:30:25;99649.44;;;2.91;71.90
59391;BME280;53405;57.012;40.984;2023-03-23T03:32:53;99652.97;;;2.90;71.58
59391;BME280;53405;57.012;40.984;2023-03-23T03:35:22;99650.69;;;2.87;71.75
59391;BME280;53405;57.012;40.984;2023-03-23T03:37:50;99641.63;;;2.81;71.99
59391;BME280;53405;57.012;40.984;2023-03-23T03:40:19;99644.38;;;2.80;72.41
59391;BME280;53405;57.012;40.984;2023-03-23T03:42:47;99644.50;;;2.98;72.47
59391;BME280;53405;57.012;40.984;2023-03-23T03:45:16;99643.94;;;3.14;71.74
59391;BME280;53405;57.012;40.984;2023-03-23T03:47:43;99649.44;;;3.01;71.96
59391;BME280;53405;57.012;40.984;2023-03-23T03:50:10;99640.41;;;2.95;72.99
59391;BME280;53405;57.012;40.984;2023-03-23T03:52:37;99626.28;;;2.88;72.67
59391;BME280;53405;57.012;40.984;2023-03-23T03:55:05;99638.47;;;2.97;72.21
59391;BME280;53405;57.012;40.984;2023-03-23T03:57:34;99637.00;;;3.04;73.06
59391;BME280;53405;57.012;40.984;2023-03-23T04:00:18;99649.16;;;3.14;72.46
59391;BME280;53405;57.012;40.984;2023-03-23T04:02:48;99636.16;;;2.84;73.17
59391;BME280;53405;57.012;40.984;2023-03-23T04:05:24;99641.50;;;2.93;73.24
59391;BME280;53405;57.012;40.984;2023-03-23T04:07:51;99642.75;;;2.98;74.16
59391;BME280;53405;57.012;40.984;2023-03-23T04:10:20;99620.69;;;2.93;73.83
59391;BME280;53405;57.012;40.984;2023-03-23T04:12:52;99630.94;;;3.04;73.56
59391;BME280;53405;57.012;40.984;2023-03-23T04:15:36;99631.22;;;3.01;73.68
59391;BME280;53405;57.012;40.984;2023-03-23T04:18:04;99635.06;;;3.06;74.05
59391;BME280;53405;57.012;40.984;2023-03-23T04:20:32;99622.47;;;3.02;73.44
59391;BME280;53405;57.012;40.984;2023-03-23T04:23:01;99642.59;;;3.00;73.61
59391;BME280;53405;57.012;40.984;2023-03-23T04:25:29;99639.31;;;3.07;73.64
59391;BME280;53405;57.012;40.984;2023-03-23T04:27:59;99607.16;;;2.79;73.39
59391;BME280;53405;57.012;40.984;2023-03-23T04:30:31;99636.00;;;3.05;73.25
59391;BME280;53405;57.012;40.984;2023-03-23T04:33:06;99633.56;;;2.94;74.17
59391;BME280;53405;57.012;40.984;2023-03-23T04:35:32;99642.72;;;3.18;73.04
59391;BME280;53405;57.012;40.984;2023-03-23T04:38:09;99639.28;;;3.27;73.48
59391;BME280;53405;57.012;40.984;2023-03-23T04:40:37;99599.84;;;3.02;73.38
59391;BME280;53405;57.012;40.984;2023-03-23T04:43:27;99635.00;;;3.46;72.64
59391;BME280;53405;57.012;40.984;2023-03-23T04:46:00;99639.53;;;3.53;72.53
59391;BME280;53405;57.012;40.984;2023-03-23T04:48:30;99619.72;;;3.70;71.62
59391;BME280;53405;57.012;40.984;2023-03-23T04:51:22;99621.25;;;3.63;72.31
59391;BME280;53405;57.012;40.984;2023-03-23T04:53:50;99619.13;;;3.76;71.25
59391;BME280;53405;57.012;40.984;2023-03-23T04:56:16;99624.38;;;3.67;71.43
59391;BME280;53405;57.012;40.984;2023-03-23T04:58:45;99624.81;;;3.62;71.30
59391;BME280;53405;57.012;40.984;2023-03-23T05:01:41;99610.13;;;3.61;71.53
59391;BME280;53405;57.012;40.984;2023-03-23T05:04:19;99630.53;;;3.75;70.97
59391;BME280;53405;57.012;40.984;2023-03-23T05:06:56;99588.75;;;3.67;70.48
59391;BME280;53405;57.012;40.984;2023-03-23T05:09:26;99631.59;;;3.83;70.03
59391;BME280;53405;57.012;40.984;2023-03-23T05:11:53;99551.19;;;3.32;70.82
59391;BME280;53405;57.012;40.984;2023-03-23T05:14:21;99632.72;;;3.80;70.53
59391;BME280;53405;57.012;40.984;2023-03-23T05:16:58;99589.81;;;3.37;71.54
59391;BME280;53405;57.012;40.984;2023-03-23T05:19:26;99562.22;;;3.54;70.30
59391;BME280;53405;57.012;40.984;2023-03-23T05:21:58;99639.22;;;3.94;69.88
59391;BME280;53405;57.012;40.984;2023-03-23T05:24:39;99614.00;;;3.94;70.51
59391;BME280;53405;57.012;40.984;2023-03-23T05:27:05;99642.63;;;4.04;69.78
59391;BME280;53405;57.012;40.984;2023-03-23T05:29:37;99593.03;;;3.86;70.24
59391;BME280;53405;57.012;40.984;2023-03-23T05:32:07;99620.19;;;4.21;70.01
59391;BME280;53405;57.012;40.984;2023-03-23T05:34:36;99626.50;;;4.46;68.45
59391;BME280;53405;57.012;40.984;2023-03-23T05:37:03;99617.59;;;4.57;68.54
59391;BME280;53405;57.012;40.984;2023-03-23T05:39:45;99624.28;;;4.87;67.36
59391;BME280;53405;57.012;40.984;2023-03-23T05:42:30;99608.16;;;4.74;67.59
59391;BME280;53405;57.012;40.984;2023-03-23T05:45:19;99630.09;;;4.81;66.32
59391;BME280;53405;57.012;40.984;2023-03-23T05:47:49;99632.19;;;4.78;66.36
59391;BME280;53405;57.012;40.984;2023-03-23T05:50:19;99631.56;;;4.84;65.77
59391;BME280;53405;57.012;40.984;2023-03-23T05:52:46;99604.66;;;4.83;65.67
59391;BME280;53405;57.012;40.984;2023-03-23T05:55:14;99626.50;;;5.00;65.38
59391;BME280;53405;57.012;40.984;2023-03-23T05:57:44;99622.44;;;5.06;65.12
59391;BME280;53405;57.012;40.984;2023-03-23T06:00:21;99624.59;;;5.11;65.47
59391;BME280;53405;57.012;40.984;2023-03-23T06:02:57;99619.50;;;5.27;64.73
59391;BME280;53405;57.012;40.984;2023-03-23T06:05:45;99625.53;;;5.28;64.49
59391;BME280;53405;57.012;40.984;2023-03-23T06:08:14;99621.41;;;5.43;64.37
59391;BME280;53405;57.012;40.984;2023-03-23T06:10:40;99619.31;;;5.47;64.23
59391;BME280;53405;57.012;40.984;2023-03-23T06:13:07;99620.22;;;5.37;64.32
59391;BME280;53405;57.012;40.984;2023-03-23T06:15:44;99619.31;;;5.47;64.43
59391;BME280;53405;57.012;40.984;2023-03-23T06:18:14;99559.47;;;5.27;64.12
59391;BME280;53405;57.012;40.984;2023-03-23T06:20:49;99611.19;;;5.84;64.05
59391;BME280;53405;57.012;40.984;2023-03-23T06:23:26;99603.50;;;5.83;63.43
59391;BME280;53405;57.012;40.984;2023-03-23T06:25:55;99605.63;;;5.79;63.32
59391;BME280;53405;57.012;40.984;2023-03-23T06:28:23;99628.88;;;5.90;62.89
59391;BME280;53405;57.012;40.984;2023-03-23T06:30:50;99627.13;;;5.99;62.50
59391;BME280;53405;57.012;40.984;2023-03-23T06:33:16;99607.53;;;6.03;62.50
59391;BME280;53405;57.012;40.984;2023-03-23T06:36:17;99613.88;;;6.01;63.02
59391;BME280;53405;57.012;40.984;2023-03-23T06:38:53;99623.31;;;6.20;62.37
59391;BME280;53405;57.012;40.984;2023-03-23T06:41:31;99611.50;;;6.15;62.21
59391;BME280;53405;57.012;40.984;2023-03-23T06:43:58;99616.91;;;6.22;62.40
59391;BME280;53405;57.012;40.984;2023-03-23T06:46:28;99605.81;;;6.20;62.46
59391;BME280;53405;57.012;40.984;2023-03-23T06:48:55;99607.22;;;6.65;62.09
59391;BME280;53405;57.012;40.984;2023-03-23T06:51:30;99584.91;;;6.37;62.02
59391;BME280;53405;57.012;40.984;2023-03-23T06:53:56;99601.78;;;6.42;62.12
59391;BME280;53405;57.012;40.984;2023-03-23T06:56:25;99597.03;;;6.38;61.98
59391;BME280;53405;57.012;40.984;2023-03-23T06:58:52;99620.72;;;6.36;61.98
59391;BME280;53405;57.012;40.984;2023-03-23T07:01:19;99594.41;;;6.29;62.30
59391;BME280;53405;57.012;40.984;2023-03-23T07:03:54;99602.59;;;6.51;62.17
59391;BME280;53405;57.012;40.984;2023-03-23T07:06:31;99603.31;;;6.86;60.99
59391;BME280;53405;57.012;40.984;2023-03-23T07:09:00;99608.03;;;6.74;61.33
59391;BME280;53405;57.012;40.984;2023-03-23T07:11:28;99597.53;;;6.49;61.38
59391;BME280;53405;57.012;40.984;2023-03-23T07:13:57;99612.63;;;6.72;61.52
59391;BME280;53405;57.012;40.984;2023-03-23T07:16:23;99599.00;;;6.60;61.54
59391;BME280;53405;57.012;40.984;2023-03-23T07:18:51;99607.53;;;6.62;61.97
59391;BME280;53405;57.012;40.984;2023-03-23T07:21:17;99599.53;;;6.72;61.57
59391;BME280;53405;57.012;40.984;2023-03-23T07:23:44;99599.53;;;6.80;62.15
59391;BME280;53405;57.012;40.984;2023-03-23T07:26:17;99606.41;;;7.22;60.18
59391;BME280;53405;57.012;40.984;2023-03-23T07:28:49;99586.59;;;6.95;60.80
59391;BME280;53405;57.012;40.984;2023-03-23T07:31:21;99595.63;;;6.93;60.66
59391;BME280;53405;57.012;40.984;2023-03-23T07:33:48;99594.97;;;6.99;62.00
59391;BME280;53405;57.012;40.984;2023-03-23T07:36:15;99603.47;;;6.93;60.81
59391;BME280;53405;57.012;40.984;2023-03-23T07:38:43;99592.84;;;6.94;60.61
59391;BME280;53405;57.012;40.984;2023-03-23T07:41:09;99600.22;;;6.91;60.90
59391;BME280;53405;57.012;40.984;2023-03-23T07:43:39;99600.34;;;7.05;60.75
59391;BME280;53405;57.012;40.984;2023-03-23T07:46:09;99595.59;;;7.09;60.57
59391;BME280;53405;57.012;40.984;2023-03-23T07:48:51;99581.84;;;7.32;60.08
59391;BME280;53405;57.012;40.984;2023-03-23T07:51:21;99585.91;;;7.34;59.74
59391;BME280;53405;57.012;40.984;2023-03-23T07:53:50;99597.41;;;7.17;60.16
59391;BME280;53405;57.012;40.984;2023-03-23T07:56:36;99595.78;;;7.16;60.72
59391;BME280;53405;57.012;40.984;2023-03-23T07:59:12;99583.47;;;7.24;60.34
59391;BME280;53405;57.012;40.984;2023-03-23T08:01:40;99584.44;;;7.23;61.45
59391;BME280;53405;57.012;40.984;2023-03-23T08:04:28;99554.38;;;7.11;59.91
59391;BME280;53405;57.012;40.984;2023-03-23T08:07:14;99584.63;;;7.22;59.84
59391;BME280;53405;57.012;40.984;2023-03-23T08:10:12;99565.06;;;7.57;59.52
59391;BME280;53405;57.012;40.984;2023-03-23T08:12:55;99564.34;;;7.72;58.47
59391;BME280;53405;57.012;40.984;2023-03-23T08:15:47;99565.72;;;7.99;58.60
59391;BME280;53405;57.012;40.984;2023-03-23T08:18:31;99560.75;;;7.73;58.50
59391;BME280;53405;57.012;40.984;2023-03-23T08:21:07;99559.41;;;7.85;58.46
59391;BME280;53405;57.012;40.984;2023-03-23T08:23:52;99515.47;;;7.87;58.70
59391;BME280;53405;57.012;40.984;2023-03-23T08:26:37;99515.22;;;8.28;56.69
59391;BME280;53405;57.012;40.984;2023-03-23T08:29:22;99540.81;;;8.58;56.10
59391;BME280;53405;57.012;40.984;2023-03-23T08:31:48;99565.63;;;8.70;55.56
59391;BME280;53405;57.012;40.984;2023-03-23T08:34:24;99553.34;;;8.71;55.66
59391;BME280;53405;57.012;40.984;2023-03-23T08:37:08;99564.91;;;9.14;54.34
59391;BME280;53405;57.012;40.984;2023-03-23T08:40:14;99543.75;;;9.31;53.82
59391;BME280;53405;57.012;40.984;2023-03-23T08:42:59;99562.81;;;9.48;53.17
59391;BME280;53405;57.012;40.984;2023-03-23T08:45:44;99546.22;;;9.32;53.57
59391;BME280;53405;57.012;40.984;2023-03-23T08:48:27;99538.66;;;10.10;52.19
59391;BME280;53405;57.012;40.984;2023-03-23T08:51:13;99532.97;;;10.07;51.21
59391;BME280;53405;57.012;40.984;2023-03-23T08:53:45;99527.94;;;9.90;51.36
59391;BME280;53405;57.012;40.984;2023-03-23T08:56:40;99511.56;;;9.73;51.47
59391;BME280;53405;57.012;40.984;2023-03-23T08:59:35;99520.63;;;9.71;52.19
59391;BME280;53405;57.012;40.984;2023-03-23T09:02:17;99520.19;;;9.37;52.58
59391;BME280;53405;57.012;40.984;2023-03-23T09:05:00;99495.81;;;8.99;53.60
59391;BME280;53405;57.012;40.984;2023-03-23T09:07:45;99510.50;;;9.08;54.35
59391;BME280;53405;57.012;40.984;2023-03-23T09:10:12;99505.03;;;9.10;53.61
59391;BME280;53405;57.012;40.984;2023-03-23T09:12:40;99492.72;;;8.95;54.11
59391;BME280;53405;57.012;40.984;2023-03-23T09:15:07;99484.13;;;8.86;54.73
59391;BME280;53405;57.012;40.984;2023-03-23T09:17:40;99471.16;;;8.85;55.02
59391;BME280;53405;57.012;40.984;2023-03-23T09:20:08;99469.56;;;8.99;54.00
59391;BME280;53405;57.012;40.984;2023-03-23T09:22:39;99476.34;;;9.08;54.44
59391;BME280;53405;57.012;40.984;2023-03-23T09:25:09;99474.72;;;9.07;53.61
59391;BME280;53405;57.012;40.984;2023-03-23T09:27:38;99446.91;;;8.98;53.74
59391;BME280;53405;57.012;40.984;2023-03-23T09:30:07;99467.72;;;9.14;54.19
59391;BME280;53405;57.012;40.984;2023-03-23T09:32:34;99465.38;;;9.04;53.68
59391;BME280;53405;57.012;40.984;2023-03-23T09:35:05;99470.97;;;9.01;53.95
59391;BME280;53405;57.012;40.984;2023-03-23T09:37:35;99462.47;;;8.99;53.97
59391;BME280;53405;57.012;40.984;2023-03-23T09:40:03;99451.06;;;9.07;53.49
59391;BME280;53405;57.012;40.984;2023-03-23T09:51:32;99452.00;;;9.66;51.78
59391;BME280;53405;57.012;40.984;2023-03-23T09:54:05;99427.97;;;9.17;52.55
59391;BME280;53405;57.012;40.984;2023-03-23T09:56:35;99431.19;;;9.49;52.93
59391;BME280;53405;57.012;40.984;2023-03-23T09:59:31;99430.47;;;9.40;52.59
59391;BME280;53405;57.012;40.984;2023-03-23T10:02:27;99430.91;;;9.59;52.40
59391;BME280;53405;57.012;40.984;2023-03-23T10:04:56;99415.31;;;9.57;51.81
59391;BME280;53405;57.012;40.984;2023-03-23T10:07:27;99384.16;;;9.54;52.86
59391;BME280;53405;57.012;40.984;2023-03-23T10:09:56;99405.44;;;9.81;51.86
59391;BME280;53405;57.012;40.984;2023-03-23T10:12:42;99417.59;;;9.82;51.68
59391;BME280;53405;57.012;40.984;2023-03-23T10:25:55;99416.75;;;9.97;51.14
59391;BME280;53405;57.012;40.984;2023-03-23T10:28:39;99408.09;;;9.81;51.22
59391;BME280;53405;57.012;40.984;2023-03-23T10:31:34;99392.63;;;9.71;52.05
59391;BME280;53405;57.012;40.984;2023-03-23T10:34:15;99385.75;;;9.92;51.87
59391;BME280;53405;57.012;40.984;2023-03-23T10:37:25;99387.53;;;9.91;53.30
59391;BME280;53405;57.012;40.984;2023-03-23T10:39:55;99384.81;;;10.00;52.18
59391;BME280;53405;57.012;40.984;2023-03-23T10:42:26;99416.47;;;10.13;51.50
59391;BME280;53405;57.012;40.984;2023-03-23T10:44:55;99386.88;;;10.04;51.56
59391;BME280;53405;57.012;40.984;2023-03-23T10:47:22;99365.06;;;9.89;50.73
59391;BME280;53405;57.012;40.984;2023-03-23T10:49:59;99388.09;;;10.30;52.75
59391;BME280;53405;57.012;40.984;2023-03-23T10:52:38;99378.69;;;10.42;50.45
59391;BME280;53405;57.012;40.984;2023-03-23T10:55:12;99381.31;;;10.21;50.42
59391;BME280;53405;57.012;40.984;2023-03-23T10:57:44;99385.81;;;10.48;50.39
59391;BME280;53405;57.012;40.984;2023-03-23T11:03:07;99386.38;;;11.75;47.70
59391;BME280;53405;57.012;40.984;2023-03-23T11:05:53;99364.72;;;12.27;45.32
59391;BME280;53405;57.012;40.984;2023-03-23T11:08:22;99392.41;;;13.03;44.75
59391;BME280;53405;57.012;40.984;2023-03-23T11:10:52;99395.19;;;13.22;43.28
59391;BME280;53405;57.012;40.984;2023-03-23T11:13:20;99392.25;;;12.84;44.80
59391;BME280;53405;57.012;40.984;2023-03-23T11:15:48;99386.56;;;13.46;44.00
59391;BME280;53405;57.012;40.984;2023-03-23T11:18:20;99403.94;;;13.35;42.90
59391;BME280;53405;57.012;40.984;2023-03-23T11:20:54;99402.41;;;13.53;43.17
59391;BME280;53405;57.012;40.984;2023-03-23T11:23:31;99411.09;;;13.60;42.07
59391;BME280;53405;57.012;40.984;2023-03-23T11:31:34;99422.69;;;13.07;42.64
59391;BME280;53405;57.012;40.984;2023-03-23T11:34:17;99418.44;;;12.93;43.12
59391;BME280;53405;57.012;40.984;2023-03-23T11:36:50;99436.94;;;13.06;42.51
59391;BME280;53405;57.012;40.984;2023-03-23T11:39:28;99436.56;;;12.82;43.01
59391;BME280;53405;57.012;40.984;2023-03-23T11:41:58;99416.88;;;12.72;43.34
59391;BME280;53405;57.012;40.984;2023-03-23T11:44:32;99428.06;;;12.47;43.80
59391;BME280;53405;57.012;40.984;2023-03-23T11:50:03;99409.38;;;12.35;44.27
59391;BME280;53405;57.012;40.984;2023-03-23T11:55:15;99410.53;;;12.86;43.27
59391;BME280;53405;57.012;40.984;2023-03-23T11:57:43;99411.31;;;13.13;42.96
59391;BME280;53405;57.012;40.984;2023-03-23T12:00:17;99416.09;;;13.30;43.79
59391;BME280;53405;57.012;40.984;2023-03-23T12:16:48;99386.22;;;11.22;46.62
59391;BME280;53405;57.012;40.984;2023-03-23T12:33:28;99369.78;;;10.78;47.53
59391;BME280;53405;57.012;40.984;2023-03-23T12:44:00;99352.69;;;11.02;47.22
59391;BME280;53405;57.012;40.984;2023-03-23T12:51:57;99367.81;;;10.87;47.21
59391;BME280;53405;57.012;40.984;2023-03-23T12:54:37;99352.00;;;10.87;48.45
59391;BME280;53405;57.012;40.984;2023-03-23T13:00:05;99343.56;;;10.63;48.31
59391;BME280;53405;57.012;40.984;2023-03-23T13:02:50;99357.28;;;10.52;48.66
59391;BME280;53405;57.012;40.984;2023-03-23T13:07:55;99327.47;;;10.45;49.61
59391;BME280;53405;57.012;40.984;2023-03-23T13:10:25;99328.31;;;10.52;48.31
59391;BME280;53405;57.012;40.984;2023-03-23T13:12:53;99331.69;;;10.39;48.86
59391;BME280;53405;57.012;40.984;2023-03-23T13:15:43;99325.31;;;10.27;49.19
59391;BME280;53405;57.012;40.984;2023-03-23T13:18:33;99321.59;;;10.21;49.11
59391;BME280;53405;57.012;40.984;2023-03-23T13:21:24;99309.50;;;10.27;49.39
59391;BME280;53405;57.012;40.984;2023-03-23T13:24:08;99312.56;;;10.30;49.73
59391;BME280;53405;57.012;40.984;2023-03-23T13:26:43;99320.34;;;10.39;48.92
59391;BME280;53405;57.012;40.984;2023-03-23T13:29:32;99295.78;;;10.66;47.99
59391;BME280;53405;57.012;40.984;2023-03-23T13:32:35;99312.31;;;10.89;47.80
59391;BME280;53405;57.012;40.984;2023-03-23T13:35:13;99310.44;;;10.76;48.40
59391;BME280;53405;57.012;40.984;2023-03-23T13:37:45;99304.41;;;10.47;49.63
59391;BME280;53405;57.012;40.984;2023-03-23T13:40:26;99301.28;;;10.72;48.51
59391;BME280;53405;57.012;40.984;2023-03-23T13:42:55;99298.06;;;10.35;49.82
59391;BME280;53405;57.012;40.984;2023-03-23T13:45:23;99309.63;;;10.40;49.87
59391;BME280;53405;57.012;40.984;2023-03-23T13:51:00;99299.06;;;9.84;50.82
59391;BME280;53405;57.012;40.984;2023-03-23T13:53:44;99304.03;;;9.72;52.51
59391;BME280;53405;57.012;40.984;2023-03-23T13:56:20;99304.78;;;9.87;51.88
59391;BME280;53405;57.012;40.984;2023-03-23T13:58:50;99306.41;;;9.67;52.70
59391;BME280;53405;57.012;40.984;2023-03-23T14:01:34;99306.66;;;9.50;52.28
59391;BME280;53405;57.012;40.984;2023-03-23T14:04:04;99285.28;;;9.82;51.53
59391;BME280;53405;57.012;40.984;2023-03-23T14:06:35;99286.94;;;9.61;52.08
59391;BME280;53405;57.012;40.984;2023-03-23T14:09:28;99276.47;;;9.68;52.05
59391;BME280;53405;57.012;40.984;2023-03-23T14:11:59;99277.56;;;9.73;51.81
59391;BME280;53405;57.012;40.984;2023-03-23T14:14:41;99263.53;;;9.94;51.25
59391;BME280;53405;57.012;40.984;2023-03-23T14:17:22;99265.06;;;9.82;51.33
59391;BME280;53405;57.012;40.984;2023-03-23T14:19:54;99259.91;;;9.67;51.87
59391;BME280;53405;57.012;40.984;2023-03-23T14:22:37;99273.56;;;9.77;52.11
59391;BME280;53405;57.012;40.984;2023-03-23T14:25:15;99264.44;;;9.80;51.52
59391;BME280;53405;57.012;40.984;2023-03-23T14:27:43;99255.78;;;9.58;51.75
59391;BME280;53405;57.012;40.984;2023-03-23T14:30:15;99275.38;;;9.55;52.82
59391;BME280;53405;57.012;40.984;2023-03-23T14:32:42;99269.31;;;9.33;53.06
59391;BME280;53405;57.012;40.984;2023-03-23T14:35:21;99257.03;;;9.40;52.80
59391;BME280;53405;57.012;40.984;2023-03-23T14:37:48;99271.88;;;9.48;53.62
59391;BME280;53405;57.012;40.984;2023-03-23T14:40:16;99269.44;;;9.47;54.71
59391;BME280;53405;57.012;40.984;2023-03-23T14:42:43;99285.75;;;9.42;52.87
59391;BME280;53405;57.012;40.984;2023-03-23T14:45:16;99275.56;;;9.32;53.49
59391;BME280;53405;57.012;40.984;2023-03-23T14:47:45;99278.19;;;9.32;53.26
59391;BME280;53405;57.012;40.984;2023-03-23T14:52:52;99265.75;;;9.04;54.27
59391;BME280;53405;57.012;40.984;2023-03-23T14:55:20;99261.28;;;9.20;54.35
59391;BME280;53405;57.012;40.984;2023-03-23T14:57:47;99265.41;;;9.08;54.38
59391;BME280;53405;57.012;40.984;2023-03-23T15:02:51;99264.19;;;8.89;55.59
59391;BME280;53405;57.012;40.984;2023-03-23T15:05:27;99251.91;;;9.11;55.19
59391;BME280;53405;57.012;40.984;2023-03-23T15:07:56;99267.53;;;9.19;54.40
59391;BME280;53405;57.012;40.984;2023-03-23T15:10:25;99249.13;;;8.97;54.83
59391;BME280;53405;57.012;40.984;2023-03-23T15:12:52;99252.31;;;8.93;55.45
59391;BME280;53405;57.012;40.984;2023-03-23T15:15:33;99260.41;;;8.76;55.79
59391;BME280;53405;57.012;40.984;2023-03-23T15:18:01;99254.78;;;8.79;55.46
59391;BME280;53405;57.012;40.984;2023-03-23T15:22:54;99260.22;;;8.78;56.14
59391;BME280;53405;57.012;40.984;2023-03-23T15:25:22;99255.44;;;8.81;55.76